sensor_id;sensor_type;location;lat;lon;timestamp;P1;durP1;ratioP1;P2;durP2;ratioP2
69305;SDS011;56427;51.580;4.656;2024-02-21T00:01:47;12.57;;;4.60;;
69305;SDS011;56427;51.580;4.656;2024-02-21T00:04:12;13.80;;;5.00;;
69305;SDS011;56427;51.580;4.656;2024-02-21T00:06:38;15.95;;;5.07;;
69305;SDS011;56427;51.580;4.656;2024-02-21T00:09:03;11.00;;;4.40;;
69305;SDS011;56427;51.580;4.656;2024-02-21T00:11:28;14.27;;;4.67;;
69305;SDS011;56427;51.580;4.656;2024-02-21T00:13:53;12.30;;;4.43;;
69305;SDS011;56427;51.580;4.656;2024-02-21T00:16:19;11.60;;;4.20;;
69305;SDS011;56427;51.580;4.656;2024-02-21T00:18:44;15.53;;;5.00;;
69305;SDS011;56427;51.580;4.656;2024-02-21T00:21:10;11.93;;;4.68;;
69305;SDS011;56427;51.580;4.656;2024-02-21T00:23:40;10.93;;;3.83;;
69305;SDS011;56427;51.580;4.656;2024-02-21T00:26:05;9.00;;;3.67;;
69305;SDS011;56427;51.580;4.656;2024-02-21T00:28:31;15.17;;;4.10;;
69305;SDS011;56427;51.580;4.656;2024-02-21T00:30:56;15.00;;;4.60;;
69305;SDS011;56427;51.580;4.656;2024-02-21T00:33:21;12.97;;;4.00;;
69305;SDS011;56427;51.580;4.656;2024-02-21T00:35:47;9.75;;;3.78;;
69305;SDS011;56427;51.580;4.656;2024-02-21T00:38:12;16.23;;;4.60;;
69305;SDS011;56427;51.580;4.656;2024-02-21T00:40:37;11.97;;;4.27;;
69305;SDS011;56427;51.580;4.656;2024-02-21T00:43:03;11.67;;;3.10;;
69305;SDS011;56427;51.580;4.656;2024-02-21T00:45:28;11.73;;;3.23;;
69305;SDS011;56427;51.580;4.656;2024-02-21T00:47:53;11.83;;;3.97;;
69305;SDS011;56427;51.580;4.656;2024-02-21T00:50:19;13.07;;;3.57;;
69305;SDS011;56427;51.580;4.656;2024-02-21T00:52:44;10.48;;;3.38;;
69305;SDS011;56427;51.580;4.656;2024-02-21T00:55:09;10.10;;;3.88;;
69305;SDS011;56427;51.580;4.656;2024-02-21T00:57:35;11.10;;;3.40;;
69305;SDS011;56427;51.580;4.656;2024-02-21T01:00:01;7.38;;;3.47;;
69305;SDS011;56427;51.580;4.656;2024-02-21T01:02:27;11.02;;;3.58;;
69305;SDS011;56427;51.580;4.656;2024-02-21T01:04:53;13.83;;;3.90;;
69305;SDS011;56427;51.580;4.656;2024-02-21T01:07:18;10.98;;;3.60;;
69305;SDS011;56427;51.580;4.656;2024-02-21T01:09:43;14.32;;;4.35;;
69305;SDS011;56427;51.580;4.656;2024-02-21T01:12:08;9.43;;;3.60;;
69305;SDS011;56427;51.580;4.656;2024-02-21T01:14:34;10.60;;;3.70;;
69305;SDS011;56427;51.580;4.656;2024-02-21T01:16:59;8.07;;;3.80;;
69305;SDS011;56427;51.580;4.656;2024-02-21T01:19:24;11.27;;;4.23;;
69305;SDS011;56427;51.580;4.656;2024-02-21T01:21:50;10.03;;;4.47;;
69305;SDS011;56427;51.580;4.656;2024-02-21T01:24:15;16.73;;;4.77;;
69305;SDS011;56427;51.580;4.656;2024-02-21T01:26:40;14.93;;;4.70;;
69305;SDS011;56427;51.580;4.656;2024-02-21T01:29:06;12.70;;;5.03;;
69305;SDS011;56427;51.580;4.656;2024-02-21T01:31:31;11.37;;;4.77;;
69305;SDS011;56427;51.580;4.656;2024-02-21T01:33:56;12.83;;;4.63;;
69305;SDS011;56427;51.580;4.656;2024-02-21T01:36:23;12.30;;;4.65;;
69305;SDS011;56427;51.580;4.656;2024-02-21T01:38:48;7.93;;;4.10;;
69305;SDS011;56427;51.580;4.656;2024-02-21T01:41:13;10.30;;;4.40;;
69305;SDS011;56427;51.580;4.656;2024-02-21T01:43:39;8.73;;;3.90;;
69305;SDS011;56427;51.580;4.656;2024-02-21T01:46:04;12.30;;;4.67;;
69305;SDS011;56427;51.580;4.656;2024-02-21T01:48:29;11.90;;;4.40;;
69305;SDS011;56427;51.580;4.656;2024-02-21T01:50:55;8.70;;;4.30;;
69305;SDS011;56427;51.580;4.656;2024-02-21T01:53:29;16.23;;;4.93;;
69305;SDS011;56427;51.580;4.656;2024-02-21T01:55:55;9.93;;;4.35;;
69305;SDS011;56427;51.580;4.656;2024-02-21T01:58:21;11.23;;;4.60;;
69305;SDS011;56427;51.580;4.656;2024-02-21T02:00:47;9.77;;;4.25;;
69305;SDS011;56427;51.580;4.656;2024-02-21T02:03:13;10.50;;;4.25;;
69305;SDS011;56427;51.580;4.656;2024-02-21T02:05:48;14.00;;;4.53;;
69305;SDS011;56427;51.580;4.656;2024-02-21T02:08:20;9.88;;;4.45;;
69305;SDS011;56427;51.580;4.656;2024-02-21T02:10:47;11.23;;;4.35;;
69305;SDS011;56427;51.580;4.656;2024-02-21T02:13:12;10.33;;;4.10;;
69305;SDS011;56427;51.580;4.656;2024-02-21T02:15:48;15.57;;;4.50;;
69305;SDS011;56427;51.580;4.656;2024-02-21T02:18:14;10.10;;;4.38;;
69305;SDS011;56427;51.580;4.656;2024-02-21T02:20:43;8.27;;;3.80;;
69305;SDS011;56427;51.580;4.656;2024-02-21T02:23:10;13.07;;;4.15;;
69305;SDS011;56427;51.580;4.656;2024-02-21T02:25:35;15.52;;;5.68;;
69305;SDS011;56427;51.580;4.656;2024-02-21T02:28:02;16.20;;;4.33;;
69305;SDS011;56427;51.580;4.656;2024-02-21T02:30:33;8.32;;;3.83;;
69305;SDS011;56427;51.580;4.656;2024-02-21T02:33:00;10.07;;;4.22;;
69305;SDS011;56427;51.580;4.656;2024-02-21T02:35:26;12.27;;;4.72;;
69305;SDS011;56427;51.580;4.656;2024-02-21T02:37:52;9.20;;;4.57;;
69305;SDS011;56427;51.580;4.656;2024-02-21T02:40:17;12.03;;;4.00;;
69305;SDS011;56427;51.580;4.656;2024-02-21T02:42:43;11.68;;;4.38;;
69305;SDS011;56427;51.580;4.656;2024-02-21T02:45:09;11.40;;;5.00;;
69305;SDS011;56427;51.580;4.656;2024-02-21T02:47:34;13.10;;;4.67;;
69305;SDS011;56427;51.580;4.656;2024-02-21T02:50:00;10.93;;;4.80;;
69305;SDS011;56427;51.580;4.656;2024-02-21T02:52:26;9.85;;;4.30;;
69305;SDS011;56427;51.580;4.656;2024-02-21T02:54:51;9.47;;;4.17;;
69305;SDS011;56427;51.580;4.656;2024-02-21T02:57:18;13.00;;;4.65;;
69305;SDS011;56427;51.580;4.656;2024-02-21T02:59:52;12.77;;;4.70;;
69305;SDS011;56427;51.580;4.656;2024-02-21T03:02:18;12.52;;;5.38;;
69305;SDS011;56427;51.580;4.656;2024-02-21T03:04:43;14.13;;;5.30;;
69305;SDS011;56427;51.580;4.656;2024-02-21T03:07:09;9.82;;;4.95;;
69305;SDS011;56427;51.580;4.656;2024-02-21T03:09:36;12.88;;;4.57;;
69305;SDS011;56427;51.580;4.656;2024-02-21T03:12:07;14.95;;;5.28;;
69305;SDS011;56427;51.580;4.656;2024-02-21T03:14:33;13.90;;;5.18;;
69305;SDS011;56427;51.580;4.656;2024-02-21T03:16:58;12.53;;;5.37;;
69305;SDS011;56427;51.580;4.656;2024-02-21T03:19:24;15.53;;;5.73;;
69305;SDS011;56427;51.580;4.656;2024-02-21T03:21:50;10.50;;;5.25;;
69305;SDS011;56427;51.580;4.656;2024-02-21T03:24:16;15.55;;;5.80;;
69305;SDS011;56427;51.580;4.656;2024-02-21T03:26:42;12.53;;;5.47;;
69305;SDS011;56427;51.580;4.656;2024-02-21T03:29:08;11.15;;;5.15;;
69305;SDS011;56427;51.580;4.656;2024-02-21T03:31:36;13.95;;;5.68;;
69305;SDS011;56427;51.580;4.656;2024-02-21T03:34:02;19.73;;;6.40;;
69305;SDS011;56427;51.580;4.656;2024-02-21T03:36:27;14.20;;;6.05;;
69305;SDS011;56427;51.580;4.656;2024-02-21T03:38:54;13.90;;;6.50;;
69305;SDS011;56427;51.580;4.656;2024-02-21T03:41:19;14.20;;;7.30;;
69305;SDS011;56427;51.580;4.656;2024-02-21T03:43:44;14.50;;;6.27;;
69305;SDS011;56427;51.580;4.656;2024-02-21T03:46:10;18.23;;;6.87;;
69305;SDS011;56427;51.580;4.656;2024-02-21T03:48:35;18.37;;;6.23;;
69305;SDS011;56427;51.580;4.656;2024-02-21T03:51:01;12.70;;;6.07;;
69305;SDS011;56427;51.580;4.656;2024-02-21T03:53:26;14.90;;;7.27;;
69305;SDS011;56427;51.580;4.656;2024-02-21T03:55:51;14.00;;;6.90;;
69305;SDS011;56427;51.580;4.656;2024-02-21T03:58:17;20.60;;;7.03;;
69305;SDS011;56427;51.580;4.656;2024-02-21T04:00:42;14.83;;;7.03;;
69305;SDS011;56427;51.580;4.656;2024-02-21T04:03:07;14.33;;;6.27;;
69305;SDS011;56427;51.580;4.656;2024-02-21T04:05:33;12.82;;;6.57;;
69305;SDS011;56427;51.580;4.656;2024-02-21T04:07:58;18.93;;;7.07;;
69305;SDS011;56427;51.580;4.656;2024-02-21T04:10:24;16.33;;;7.00;;
69305;SDS011;56427;51.580;4.656;2024-02-21T04:12:49;13.13;;;6.40;;
69305;SDS011;56427;51.580;4.656;2024-02-21T04:15:15;21.77;;;7.10;;
69305;SDS011;56427;51.580;4.656;2024-02-21T04:17:41;16.83;;;6.93;;
69305;SDS011;56427;51.580;4.656;2024-02-21T04:20:13;18.30;;;6.47;;
69305;SDS011;56427;51.580;4.656;2024-02-21T04:22:44;18.75;;;8.23;;
69305;SDS011;56427;51.580;4.656;2024-02-21T04:25:10;18.15;;;6.45;;
69305;SDS011;56427;51.580;4.656;2024-02-21T04:27:36;19.57;;;7.67;;
69305;SDS011;56427;51.580;4.656;2024-02-21T04:30:02;22.13;;;8.18;;
69305;SDS011;56427;51.580;4.656;2024-02-21T04:32:27;18.60;;;8.25;;
69305;SDS011;56427;51.580;4.656;2024-02-21T04:34:53;23.57;;;7.97;;
69305;SDS011;56427;51.580;4.656;2024-02-21T04:37:18;19.97;;;7.30;;
69305;SDS011;56427;51.580;4.656;2024-02-21T04:39:44;20.40;;;7.63;;
69305;SDS011;56427;51.580;4.656;2024-02-21T04:42:09;27.65;;;8.77;;
69305;SDS011;56427;51.580;4.656;2024-02-21T04:44:35;21.33;;;7.73;;
69305;SDS011;56427;51.580;4.656;2024-02-21T04:47:00;22.45;;;8.20;;
69305;SDS011;56427;51.580;4.656;2024-02-21T04:49:26;22.58;;;8.52;;
69305;SDS011;56427;51.580;4.656;2024-02-21T04:51:51;21.17;;;8.30;;
69305;SDS011;56427;51.580;4.656;2024-02-21T04:54:17;23.70;;;8.70;;
69305;SDS011;56427;51.580;4.656;2024-02-21T04:56:42;24.17;;;8.10;;
69305;SDS011;56427;51.580;4.656;2024-02-21T04:59:07;21.83;;;9.47;;
69305;SDS011;56427;51.580;4.656;2024-02-21T05:01:32;20.20;;;8.00;;
69305;SDS011;56427;51.580;4.656;2024-02-21T05:03:58;21.27;;;8.23;;
69305;SDS011;56427;51.580;4.656;2024-02-21T05:06:23;22.35;;;8.85;;
69305;SDS011;56427;51.580;4.656;2024-02-21T05:08:48;23.23;;;8.37;;
69305;SDS011;56427;51.580;4.656;2024-02-21T05:11:14;19.90;;;8.13;;
69305;SDS011;56427;51.580;4.656;2024-02-21T05:13:39;24.77;;;8.77;;
69305;SDS011;56427;51.580;4.656;2024-02-21T05:16:05;22.57;;;8.93;;
69305;SDS011;56427;51.580;4.656;2024-02-21T05:18:32;19.70;;;8.30;;
69305;SDS011;56427;51.580;4.656;2024-02-21T05:20:58;20.10;;;7.82;;
69305;SDS011;56427;51.580;4.656;2024-02-21T05:23:24;23.90;;;9.23;;
69305;SDS011;56427;51.580;4.656;2024-02-21T05:25:49;21.65;;;8.55;;
69305;SDS011;56427;51.580;4.656;2024-02-21T05:28:14;18.90;;;8.55;;
69305;SDS011;56427;51.580;4.656;2024-02-21T05:30:40;17.50;;;8.30;;
69305;SDS011;56427;51.580;4.656;2024-02-21T05:33:06;19.55;;;8.45;;
69305;SDS011;56427;51.580;4.656;2024-02-21T05:35:32;24.23;;;8.38;;
69305;SDS011;56427;51.580;4.656;2024-02-21T05:37:57;26.43;;;8.40;;
69305;SDS011;56427;51.580;4.656;2024-02-21T05:40:24;17.02;;;7.70;;
69305;SDS011;56427;51.580;4.656;2024-02-21T05:42:50;25.60;;;8.25;;
69305;SDS011;56427;51.580;4.656;2024-02-21T05:45:16;22.75;;;8.80;;
69305;SDS011;56427;51.580;4.656;2024-02-21T05:47:42;23.13;;;8.25;;
69305;SDS011;56427;51.580;4.656;2024-02-21T05:50:08;24.97;;;8.00;;
69305;SDS011;56427;51.580;4.656;2024-02-21T05:52:34;21.77;;;8.00;;
69305;SDS011;56427;51.580;4.656;2024-02-21T05:54:59;21.53;;;8.13;;
69305;SDS011;56427;51.580;4.656;2024-02-21T05:57:24;18.07;;;8.00;;
69305;SDS011;56427;51.580;4.656;2024-02-21T05:59:49;18.57;;;8.97;;
69305;SDS011;56427;51.580;4.656;2024-02-21T06:02:15;20.27;;;8.13;;
69305;SDS011;56427;51.580;4.656;2024-02-21T06:04:40;20.73;;;8.37;;
69305;SDS011;56427;51.580;4.656;2024-02-21T06:07:07;21.45;;;8.82;;
69305;SDS011;56427;51.580;4.656;2024-02-21T06:09:33;21.83;;;8.10;;
69305;SDS011;56427;51.580;4.656;2024-02-21T06:11:58;21.77;;;9.20;;
69305;SDS011;56427;51.580;4.656;2024-02-21T06:14:23;22.30;;;9.40;;
69305;SDS011;56427;51.580;4.656;2024-02-21T06:16:49;21.43;;;8.90;;
69305;SDS011;56427;51.580;4.656;2024-02-21T06:19:14;22.50;;;8.33;;
69305;SDS011;56427;51.580;4.656;2024-02-21T06:21:40;26.33;;;9.77;;
69305;SDS011;56427;51.580;4.656;2024-02-21T06:24:05;29.53;;;9.17;;
69305;SDS011;56427;51.580;4.656;2024-02-21T06:26:30;22.95;;;8.98;;
69305;SDS011;56427;51.580;4.656;2024-02-21T06:28:56;20.43;;;8.90;;
69305;SDS011;56427;51.580;4.656;2024-02-21T06:31:22;21.58;;;9.75;;
69305;SDS011;56427;51.580;4.656;2024-02-21T06:33:47;18.93;;;8.80;;
69305;SDS011;56427;51.580;4.656;2024-02-21T06:36:12;19.20;;;9.30;;
69305;SDS011;56427;51.580;4.656;2024-02-21T06:38:37;20.23;;;8.93;;
69305;SDS011;56427;51.580;4.656;2024-02-21T06:41:03;20.00;;;9.53;;
69305;SDS011;56427;51.580;4.656;2024-02-21T06:43:29;20.83;;;8.55;;
69305;SDS011;56427;51.580;4.656;2024-02-21T06:45:54;19.20;;;9.37;;
69305;SDS011;56427;51.580;4.656;2024-02-21T06:48:21;20.48;;;8.68;;
69305;SDS011;56427;51.580;4.656;2024-02-21T06:50:47;21.40;;;9.33;;
69305;SDS011;56427;51.580;4.656;2024-02-21T06:53:12;19.23;;;9.37;;
69305;SDS011;56427;51.580;4.656;2024-02-21T06:55:37;22.97;;;9.00;;
69305;SDS011;56427;51.580;4.656;2024-02-21T06:58:03;17.83;;;9.73;;
69305;SDS011;56427;51.580;4.656;2024-02-21T07:00:29;23.20;;;9.05;;
69305;SDS011;56427;51.580;4.656;2024-02-21T07:02:54;22.77;;;9.40;;
69305;SDS011;56427;51.580;4.656;2024-02-21T07:05:20;22.70;;;10.30;;
69305;SDS011;56427;51.580;4.656;2024-02-21T07:07:46;23.43;;;10.27;;
69305;SDS011;56427;51.580;4.656;2024-02-21T07:10:11;21.87;;;10.37;;
69305;SDS011;56427;51.580;4.656;2024-02-21T07:12:36;24.67;;;11.07;;
69305;SDS011;56427;51.580;4.656;2024-02-21T07:15:06;25.75;;;11.55;;
69305;SDS011;56427;51.580;4.656;2024-02-21T07:17:32;24.60;;;10.93;;
69305;SDS011;56427;51.580;4.656;2024-02-21T07:19:57;22.30;;;10.03;;
69305;SDS011;56427;51.580;4.656;2024-02-21T07:22:24;18.33;;;10.13;;
69305;SDS011;56427;51.580;4.656;2024-02-21T07:24:49;20.53;;;10.03;;
69305;SDS011;56427;51.580;4.656;2024-02-21T07:27:15;22.37;;;10.83;;
69305;SDS011;56427;51.580;4.656;2024-02-21T07:29:40;23.02;;;9.80;;
69305;SDS011;56427;51.580;4.656;2024-02-21T07:32:06;20.40;;;9.50;;
69305;SDS011;56427;51.580;4.656;2024-02-21T07:34:31;21.40;;;9.55;;
69305;SDS011;56427;51.580;4.656;2024-02-21T07:36:59;19.97;;;9.77;;
69305;SDS011;56427;51.580;4.656;2024-02-21T07:39:24;19.17;;;8.95;;
69305;SDS011;56427;51.580;4.656;2024-02-21T07:41:50;20.08;;;10.75;;
69305;SDS011;56427;51.580;4.656;2024-02-21T07:44:15;20.03;;;9.80;;
69305;SDS011;56427;51.580;4.656;2024-02-21T07:46:40;20.30;;;9.83;;
69305;SDS011;56427;51.580;4.656;2024-02-21T07:49:06;20.05;;;9.18;;
69305;SDS011;56427;51.580;4.656;2024-02-21T07:51:31;19.77;;;9.65;;
69305;SDS011;56427;51.580;4.656;2024-02-21T07:53:57;19.10;;;9.77;;
69305;SDS011;56427;51.580;4.656;2024-02-21T07:56:23;25.45;;;9.88;;
69305;SDS011;56427;51.580;4.656;2024-02-21T07:58:48;28.03;;;11.00;;
69305;SDS011;56427;51.580;4.656;2024-02-21T08:01:19;23.13;;;9.93;;
69305;SDS011;56427;51.580;4.656;2024-02-21T08:03:47;28.23;;;10.35;;
69305;SDS011;56427;51.580;4.656;2024-02-21T08:06:13;23.03;;;9.93;;
69305;SDS011;56427;51.580;4.656;2024-02-21T08:08:39;23.13;;;10.93;;
69305;SDS011;56427;51.580;4.656;2024-02-21T08:11:07;26.90;;;10.55;;
69305;SDS011;56427;51.580;4.656;2024-02-21T08:13:32;23.40;;;9.48;;
69305;SDS011;56427;51.580;4.656;2024-02-21T08:15:58;20.53;;;9.07;;
69305;SDS011;56427;51.580;4.656;2024-02-21T08:18:23;22.97;;;9.40;;
69305;SDS011;56427;51.580;4.656;2024-02-21T08:20:48;21.00;;;10.03;;
69305;SDS011;56427;51.580;4.656;2024-02-21T08:23:18;21.40;;;9.27;;
69305;SDS011;56427;51.580;4.656;2024-02-21T08:25:44;26.52;;;9.52;;
69305;SDS011;56427;51.580;4.656;2024-02-21T08:28:09;17.93;;;9.00;;
69305;SDS011;56427;51.580;4.656;2024-02-21T08:30:34;21.50;;;9.00;;
69305;SDS011;56427;51.580;4.656;2024-02-21T08:33:02;17.90;;;8.77;;
69305;SDS011;56427;51.580;4.656;2024-02-21T08:35:29;18.67;;;8.47;;
69305;SDS011;56427;51.580;4.656;2024-02-21T08:37:54;15.13;;;8.00;;
69305;SDS011;56427;51.580;4.656;2024-02-21T08:40:19;18.37;;;8.20;;
69305;SDS011;56427;51.580;4.656;2024-02-21T08:42:46;19.38;;;8.30;;
69305;SDS011;56427;51.580;4.656;2024-02-21T08:45:14;18.67;;;8.35;;
69305;SDS011;56427;51.580;4.656;2024-02-21T08:47:39;16.02;;;8.40;;
69305;SDS011;56427;51.580;4.656;2024-02-21T08:50:08;16.08;;;8.25;;
69305;SDS011;56427;51.580;4.656;2024-02-21T08:52:36;17.52;;;7.80;;
69305;SDS011;56427;51.580;4.656;2024-02-21T08:55:02;13.95;;;7.13;;
69305;SDS011;56427;51.580;4.656;2024-02-21T08:57:27;17.27;;;8.10;;
69305;SDS011;56427;51.580;4.656;2024-02-21T08:59:53;16.90;;;7.50;;
69305;SDS011;56427;51.580;4.656;2024-02-21T09:02:18;15.17;;;6.87;;
69305;SDS011;56427;51.580;4.656;2024-02-21T09:04:44;16.20;;;7.90;;
69305;SDS011;56427;51.580;4.656;2024-02-21T09:07:09;15.50;;;7.05;;
69305;SDS011;56427;51.580;4.656;2024-02-21T09:09:35;16.53;;;7.17;;
69305;SDS011;56427;51.580;4.656;2024-02-21T09:12:03;14.43;;;6.70;;
69305;SDS011;56427;51.580;4.656;2024-02-21T09:14:31;16.45;;;7.30;;
69305;SDS011;56427;51.580;4.656;2024-02-21T09:16:57;13.70;;;7.00;;
69305;SDS011;56427;51.580;4.656;2024-02-21T09:19:22;15.00;;;7.87;;
69305;SDS011;56427;51.580;4.656;2024-02-21T09:21:48;14.03;;;7.17;;
69305;SDS011;56427;51.580;4.656;2024-02-21T09:24:14;12.45;;;6.80;;
69305;SDS011;56427;51.580;4.656;2024-02-21T09:26:39;13.93;;;7.57;;
69305;SDS011;56427;51.580;4.656;2024-02-21T09:29:04;11.63;;;6.33;;
69305;SDS011;56427;51.580;4.656;2024-02-21T09:31:30;11.73;;;6.57;;
69305;SDS011;56427;51.580;4.656;2024-02-21T09:33:55;14.60;;;7.20;;
69305;SDS011;56427;51.580;4.656;2024-02-21T09:36:20;11.80;;;6.90;;
69305;SDS011;56427;51.580;4.656;2024-02-21T09:38:46;11.85;;;6.70;;
69305;SDS011;56427;51.580;4.656;2024-02-21T09:41:18;10.47;;;6.10;;
69305;SDS011;56427;51.580;4.656;2024-02-21T09:43:50;10.82;;;6.40;;
69305;SDS011;56427;51.580;4.656;2024-02-21T09:46:18;11.43;;;6.47;;
69305;SDS011;56427;51.580;4.656;2024-02-21T09:51:40;12.88;;;6.78;;
69305;SDS011;56427;51.580;4.656;2024-02-21T09:54:07;12.02;;;6.60;;
69305;SDS011;56427;51.580;4.656;2024-02-21T09:56:33;16.20;;;7.40;;
69305;SDS011;56427;51.580;4.656;2024-02-21T09:58:58;12.70;;;7.47;;
69305;SDS011;56427;51.580;4.656;2024-02-21T10:01:24;14.18;;;6.88;;
69305;SDS011;56427;51.580;4.656;2024-02-21T10:03:49;16.57;;;7.90;;
69305;SDS011;56427;51.580;4.656;2024-02-21T10:06:14;13.50;;;7.80;;
69305;SDS011;56427;51.580;4.656;2024-02-21T10:08:40;14.67;;;7.87;;
69305;SDS011;56427;51.580;4.656;2024-02-21T10:11:05;14.73;;;9.50;;
69305;SDS011;56427;51.580;4.656;2024-02-21T10:13:30;12.27;;;7.43;;
69305;SDS011;56427;51.580;4.656;2024-02-21T10:16:03;17.98;;;8.15;;
69305;SDS011;56427;51.580;4.656;2024-02-21T10:18:32;14.65;;;8.80;;
69305;SDS011;56427;51.580;4.656;2024-02-21T10:21:04;12.63;;;8.07;;
69305;SDS011;56427;51.580;4.656;2024-02-21T10:23:41;14.00;;;7.68;;
69305;SDS011;56427;51.580;4.656;2024-02-21T10:26:07;12.40;;;7.25;;
69305;SDS011;56427;51.580;4.656;2024-02-21T10:28:32;12.85;;;7.35;;
69305;SDS011;56427;51.580;4.656;2024-02-21T10:30:58;14.87;;;7.87;;
69305;SDS011;56427;51.580;4.656;2024-02-21T10:33:23;12.90;;;7.60;;
69305;SDS011;56427;51.580;4.656;2024-02-21T10:35:50;15.40;;;7.38;;
69305;SDS011;56427;51.580;4.656;2024-02-21T10:38:16;12.82;;;6.30;;
69305;SDS011;56427;51.580;4.656;2024-02-21T10:40:41;11.93;;;6.67;;
69305;SDS011;56427;51.580;4.656;2024-02-21T10:43:09;11.53;;;6.17;;
69305;SDS011;56427;51.580;4.656;2024-02-21T10:45:37;12.48;;;6.60;;
69305;SDS011;56427;51.580;4.656;2024-02-21T10:53:36;14.65;;;6.32;;
69305;SDS011;56427;51.580;4.656;2024-02-21T10:56:16;12.30;;;5.83;;
69305;SDS011;56427;51.580;4.656;2024-02-21T10:58:49;13.55;;;5.70;;
69305;SDS011;56427;51.580;4.656;2024-02-21T11:01:15;9.55;;;5.25;;
69305;SDS011;56427;51.580;4.656;2024-02-21T11:03:43;7.93;;;4.68;;
69305;SDS011;56427;51.580;4.656;2024-02-21T11:06:13;9.88;;;5.40;;
69305;SDS011;56427;51.580;4.656;2024-02-21T11:08:40;8.40;;;5.07;;
69305;SDS011;56427;51.580;4.656;2024-02-21T11:11:05;11.77;;;5.13;;
69305;SDS011;56427;51.580;4.656;2024-02-21T11:13:31;6.90;;;4.57;;
69305;SDS011;56427;51.580;4.656;2024-02-21T11:16:09;10.93;;;5.35;;
69305;SDS011;56427;51.580;4.656;2024-02-21T11:18:39;8.40;;;4.27;;
69305;SDS011;56427;51.580;4.656;2024-02-21T11:21:05;11.05;;;5.03;;
69305;SDS011;56427;51.580;4.656;2024-02-21T11:23:31;11.88;;;5.13;;
69305;SDS011;56427;51.580;4.656;2024-02-21T11:26:06;10.75;;;5.22;;
69305;SDS011;56427;51.580;4.656;2024-02-21T11:28:32;8.00;;;4.33;;
69305;SDS011;56427;51.580;4.656;2024-02-21T11:31:06;9.93;;;4.63;;
69305;SDS011;56427;51.580;4.656;2024-02-21T11:33:33;7.95;;;4.30;;
69305;SDS011;56427;51.580;4.656;2024-02-21T11:35:59;8.40;;;4.68;;
69305;SDS011;56427;51.580;4.656;2024-02-21T11:38:25;9.27;;;5.13;;
69305;SDS011;56427;51.580;4.656;2024-02-21T11:40:50;14.60;;;5.27;;
69305;SDS011;56427;51.580;4.656;2024-02-21T11:43:15;7.87;;;4.70;;
69305;SDS011;56427;51.580;4.656;2024-02-21T11:45:41;9.45;;;4.90;;
69305;SDS011;56427;51.580;4.656;2024-02-21T11:48:07;10.83;;;4.90;;
69305;SDS011;56427;51.580;4.656;2024-02-21T11:50:33;11.93;;;4.73;;
69305;SDS011;56427;51.580;4.656;2024-02-21T11:53:00;9.30;;;4.85;;
69305;SDS011;56427;51.580;4.656;2024-02-21T11:55:26;8.33;;;4.40;;
69305;SDS011;56427;51.580;4.656;2024-02-21T11:57:51;9.23;;;4.68;;
69305;SDS011;56427;51.580;4.656;2024-02-21T12:00:17;8.70;;;4.70;;
69305;SDS011;56427;51.580;4.656;2024-02-21T12:02:46;9.88;;;4.43;;
69305;SDS011;56427;51.580;4.656;2024-02-21T12:05:12;9.10;;;4.40;;
69305;SDS011;56427;51.580;4.656;2024-02-21T12:07:38;10.15;;;4.65;;
69305;SDS011;56427;51.580;4.656;2024-02-21T12:10:10;12.63;;;4.73;;
69305;SDS011;56427;51.580;4.656;2024-02-21T12:12:36;10.50;;;4.60;;
69305;SDS011;56427;51.580;4.656;2024-02-21T12:15:03;9.57;;;4.25;;
69305;SDS011;56427;51.580;4.656;2024-02-21T12:17:29;11.55;;;4.63;;
69305;SDS011;56427;51.580;4.656;2024-02-21T12:19:56;11.75;;;4.88;;
69305;SDS011;56427;51.580;4.656;2024-02-21T12:22:21;11.17;;;4.37;;
69305;SDS011;56427;51.580;4.656;2024-02-21T12:24:47;11.27;;;4.90;;
69305;SDS011;56427;51.580;4.656;2024-02-21T12:27:13;8.60;;;4.27;;
69305;SDS011;56427;51.580;4.656;2024-02-21T12:29:38;8.45;;;4.03;;
69305;SDS011;56427;51.580;4.656;2024-02-21T12:32:04;7.83;;;4.53;;
69305;SDS011;56427;51.580;4.656;2024-02-21T12:34:30;10.57;;;4.80;;
69305;SDS011;56427;51.580;4.656;2024-02-21T12:36:57;14.15;;;5.50;;
69305;SDS011;56427;51.580;4.656;2024-02-21T12:39:24;8.23;;;4.60;;
69305;SDS011;56427;51.580;4.656;2024-02-21T12:41:49;12.93;;;5.20;;
69305;SDS011;56427;51.580;4.656;2024-02-21T12:44:15;12.70;;;5.27;;
69305;SDS011;56427;51.580;4.656;2024-02-21T12:46:42;12.45;;;5.60;;
69305;SDS011;56427;51.580;4.656;2024-02-21T12:49:07;11.73;;;5.37;;
69305;SDS011;56427;51.580;4.656;2024-02-21T12:51:33;11.53;;;5.40;;
69305;SDS011;56427;51.580;4.656;2024-02-21T12:53:59;11.52;;;5.30;;
69305;SDS011;56427;51.580;4.656;2024-02-21T12:56:25;9.30;;;5.43;;
69305;SDS011;56427;51.580;4.656;2024-02-21T12:58:54;12.75;;;5.25;;
69305;SDS011;56427;51.580;4.656;2024-02-21T13:01:20;11.00;;;5.30;;
69305;SDS011;56427;51.580;4.656;2024-02-21T13:03:46;9.93;;;5.25;;
69305;SDS011;56427;51.580;4.656;2024-02-21T13:06:11;10.60;;;4.97;;
69305;SDS011;56427;51.580;4.656;2024-02-21T13:08:37;10.77;;;4.93;;
69305;SDS011;56427;51.580;4.656;2024-02-21T13:11:02;10.23;;;4.60;;
69305;SDS011;56427;51.580;4.656;2024-02-21T13:13:29;10.75;;;5.03;;
69305;SDS011;56427;51.580;4.656;2024-02-21T13:15:54;12.37;;;5.27;;
69305;SDS011;56427;51.580;4.656;2024-02-21T13:18:20;10.13;;;4.47;;
69305;SDS011;56427;51.580;4.656;2024-02-21T13:20:45;9.13;;;4.37;;
69305;SDS011;56427;51.580;4.656;2024-02-21T13:23:10;8.90;;;4.30;;
69305;SDS011;56427;51.580;4.656;2024-02-21T13:25:36;7.03;;;3.60;;
69305;SDS011;56427;51.580;4.656;2024-02-21T13:28:01;9.47;;;4.07;;
69305;SDS011;56427;51.580;4.656;2024-02-21T13:30:28;8.57;;;3.95;;
69305;SDS011;56427;51.580;4.656;2024-02-21T13:32:53;6.70;;;3.70;;
69305;SDS011;56427;51.580;4.656;2024-02-21T13:35:19;7.57;;;3.60;;
69305;SDS011;56427;51.580;4.656;2024-02-21T13:37:45;9.95;;;3.60;;
69305;SDS011;56427;51.580;4.656;2024-02-21T13:40:11;10.25;;;3.60;;
69305;SDS011;56427;51.580;4.656;2024-02-21T13:42:36;10.23;;;3.80;;
69305;SDS011;56427;51.580;4.656;2024-02-21T13:45:03;6.95;;;3.33;;
69305;SDS011;56427;51.580;4.656;2024-02-21T13:47:30;9.80;;;3.28;;
69305;SDS011;56427;51.580;4.656;2024-02-21T13:49:55;8.90;;;3.60;;
69305;SDS011;56427;51.580;4.656;2024-02-21T13:52:21;9.52;;;3.80;;
69305;SDS011;56427;51.580;4.656;2024-02-21T13:54:48;8.27;;;3.63;;
69305;SDS011;56427;51.580;4.656;2024-02-21T13:57:13;9.55;;;3.55;;
69305;SDS011;56427;51.580;4.656;2024-02-21T13:59:42;9.82;;;3.78;;
69305;SDS011;56427;51.580;4.656;2024-02-21T14:02:07;9.60;;;4.23;;
69305;SDS011;56427;51.580;4.656;2024-02-21T14:04:33;8.53;;;3.90;;
69305;SDS011;56427;51.580;4.656;2024-02-21T14:06:59;8.52;;;3.60;;
69305;SDS011;56427;51.580;4.656;2024-02-21T14:09:24;9.47;;;3.83;;
69305;SDS011;56427;51.580;4.656;2024-02-21T14:11:49;9.60;;;4.17;;
69305;SDS011;56427;51.580;4.656;2024-02-21T14:14:15;8.47;;;4.17;;
69305;SDS011;56427;51.580;4.656;2024-02-21T14:16:40;6.50;;;3.67;;
69305;SDS011;56427;51.580;4.656;2024-02-21T14:19:06;12.77;;;4.80;;
69305;SDS011;56427;51.580;4.656;2024-02-21T14:21:33;13.98;;;4.97;;
69305;SDS011;56427;51.580;4.656;2024-02-21T14:23:58;23.03;;;6.97;;
69305;SDS011;56427;51.580;4.656;2024-02-21T14:26:26;13.68;;;4.88;;
69305;SDS011;56427;51.580;4.656;2024-02-21T14:28:52;11.53;;;4.47;;
69305;SDS011;56427;51.580;4.656;2024-02-21T14:31:17;10.83;;;4.57;;
69305;SDS011;56427;51.580;4.656;2024-02-21T14:33:42;10.17;;;5.33;;
69305;SDS011;56427;51.580;4.656;2024-02-21T14:36:08;13.27;;;5.73;;
69305;SDS011;56427;51.580;4.656;2024-02-21T14:38:33;11.20;;;6.18;;